sensor_id;sensor_type;location;lat;lon;timestamp;temperature;humidity
28823;DHT22;15961;54.678;9.110;2023-01-29T00:02:12;3.90;99.90
28823;DHT22;15961;54.678;9.110;2023-01-29T00:04:37;4.00;99.90
28823;DHT22;15961;54.678;9.110;2023-01-29T00:07:03;4.20;99.90
28823;DHT22;15961;54.678;9.110;2023-01-29T00:09:28;4.30;99.90
28823;DHT22;15961;54.678;9.110;2023-01-29T00:11:55;4.40;99.90
28823;DHT22;15961;54.678;9.110;2023-01-29T00:14:21;4.50;99.90
28823;DHT22;15961;54.678;9.110;2023-01-29T00:16:46;4.50;99.90
28823;DHT22;15961;54.678;9.110;2023-01-29T00:19:12;4.50;99.90
28823;DHT22;15961;54.678;9.110;2023-01-29T00:21:37;4.60;99.90
28823;DHT22;15961;54.678;9.110;2023-01-29T00:24:03;4.60;99.90
28823;DHT22;15961;54.678;9.110;2023-01-29T00:26:29;4.60;99.90
28823;DHT22;15961;54.678;9.110;2023-01-29T00:28:55;4.50;99.90
28823;DHT22;15961;54.678;9.110;2023-01-29T00:31:23;4.50;99.90
28823;DHT22;15961;54.678;9.110;2023-01-29T00:33:49;4.40;99.90
28823;DHT22;15961;54.678;9.110;2023-01-29T00:36:17;4.30;99.90
28823;DHT22;15961;54.678;9.110;2023-01-29T00:38:42;4.30;99.90
28823;DHT22;15961;54.678;9.110;2023-01-29T00:41:13;4.30;99.90
28823;DHT22;15961;54.678;9.110;2023-01-29T00:43:58;4.30;99.90
28823;DHT22;15961;54.678;9.110;2023-01-29T00:46:43;4.30;99.90
28823;DHT22;15961;54.678;9.110;2023-01-29T00:49:09;4.20;99.90
28823;DHT22;15961;54.678;9.110;2023-01-29T00:51:36;4.20;99.90
28823;DHT22;15961;54.678;9.110;2023-01-29T00:54:02;4.10;99.90
28823;DHT22;15961;54.678;9.110;2023-01-29T00:56:32;4.10;99.90
28823;DHT22;15961;54.678;9.110;2023-01-29T00:58:58;4.00;99.90
28823;DHT22;15961;54.678;9.110;2023-01-29T01:01:23;3.90;99.90
28823;DHT22;15961;54.678;9.110;2023-01-29T01:04:09;3.80;99.90
28823;DHT22;15961;54.678;9.110;2023-01-29T01:06:40;3.70;99.90
28823;DHT22;15961;54.678;9.110;2023-01-29T01:09:07;3.60;99.90
28823;DHT22;15961;54.678;9.110;2023-01-29T01:11:51;3.50;99.90
28823;DHT22;15961;54.678;9.110;2023-01-29T01:14:18;3.40;99.90
28823;DHT22;15961;54.678;9.110;2023-01-29T01:16:45;3.40;99.90
28823;DHT22;15961;54.678;9.110;2023-01-29T01:19:11;3.40;99.90
28823;DHT22;15961;54.678;9.110;2023-01-29T01:21:37;3.30;99.90
28823;DHT22;15961;54.678;9.110;2023-01-29T01:24:03;3.30;99.90
28823;DHT22;15961;54.678;9.110;2023-01-29T01:26:31;3.40;99.90
28823;DHT22;15961;54.678;9.110;2023-01-29T01:28:57;3.30;99.90
28823;DHT22;15961;54.678;9.110;2023-01-29T01:31:22;3.30;99.90
28823;DHT22;15961;54.678;9.110;2023-01-29T01:33:48;3.30;99.90
28823;DHT22;15961;54.678;9.110;2023-01-29T01:36:15;3.40;99.90
28823;DHT22;15961;54.678;9.110;2023-01-29T01:38:41;3.50;99.90
28823;DHT22;15961;54.678;9.110;2023-01-29T01:41:11;3.70;99.90
28823;DHT22;15961;54.678;9.110;2023-01-29T01:46:17;3.70;99.90
28823;DHT22;15961;54.678;9.110;2023-01-29T01:48:44;3.80;99.90
28823;DHT22;15961;54.678;9.110;2023-01-29T01:51:10;3.80;99.90
28823;DHT22;15961;54.678;9.110;2023-01-29T01:53:43;3.80;99.90
28823;DHT22;15961;54.678;9.110;2023-01-29T01:56:16;3.70;99.90
28823;DHT22;15961;54.678;9.110;2023-01-29T01:58:51;3.60;99.90
28823;DHT22;15961;54.678;9.110;2023-01-29T02:01:18;3.50;99.90
28823;DHT22;15961;54.678;9.110;2023-01-29T02:04:01;3.40;99.90
28823;DHT22;15961;54.678;9.110;2023-01-29T02:06:47;3.30;99.90
28823;DHT22;15961;54.678;9.110;2023-01-29T02:09:38;3.20;99.90
28823;DHT22;15961;54.678;9.110;2023-01-29T02:12:07;3.20;99.90
28823;DHT22;15961;54.678;9.110;2023-01-29T02:14:35;3.20;99.90
28823;DHT22;15961;54.678;9.110;2023-01-29T02:17:09;3.20;99.90
28823;DHT22;15961;54.678;9.110;2023-01-29T02:19:47;3.30;99.90
28823;DHT22;15961;54.678;9.110;2023-01-29T02:32:53;3.70;99.90
28823;DHT22;15961;54.678;9.110;2023-01-29T02:38:21;3.90;99.90
28823;DHT22;15961;54.678;9.110;2023-01-29T02:44:09;3.90;99.90
28823;DHT22;15961;54.678;9.110;2023-01-29T02:51:59;3.80;99.90
28823;DHT22;15961;54.678;9.110;2023-01-29T02:57:30;4.00;99.90
28823;DHT22;15961;54.678;9.110;2023-01-29T03:00:21;4.00;99.90
28823;DHT22;15961;54.678;9.110;2023-01-29T03:02:57;4.10;99.90
28823;DHT22;15961;54.678;9.110;2023-01-29T03:05:31;4.00;99.90
28823;DHT22;15961;54.678;9.110;2023-01-29T03:08:03;4.00;99.90
28823;DHT22;15961;54.678;9.110;2023-01-29T03:10:49;3.90;99.90
28823;DHT22;15961;54.678;9.110;2023-01-29T03:13:25;4.00;99.90
28823;DHT22;15961;54.678;9.110;2023-01-29T03:16:03;4.00;99.90
28823;DHT22;15961;54.678;9.110;2023-01-29T03:18:34;4.00;99.90
28823;DHT22;15961;54.678;9.110;2023-01-29T03:21:10;3.90;99.90
28823;DHT22;15961;54.678;9.110;2023-01-29T03:23:55;3.90;99.90
28823;DHT22;15961;54.678;9.110;2023-01-29T03:26:42;4.00;99.90
28823;DHT22;15961;54.678;9.110;2023-01-29T03:29:31;4.10;99.90
28823;DHT22;15961;54.678;9.110;2023-01-29T03:32:18;4.10;99.90
28823;DHT22;15961;54.678;9.110;2023-01-29T03:34:49;4.20;99.90
28823;DHT22;15961;54.678;9.110;2023-01-29T03:37:19;4.20;99.90
28823;DHT22;15961;54.678;9.110;2023-01-29T03:39:46;4.20;99.90
28823;DHT22;15961;54.678;9.110;2023-01-29T03:47:55;4.30;99.90
28823;DHT22;15961;54.678;9.110;2023-01-29T03:53:42;4.30;99.90
28823;DHT22;15961;54.678;9.110;2023-01-29T04:02:07;4.40;99.90
28823;DHT22;15961;54.678;9.110;2023-01-29T04:04:36;4.40;99.90
28823;DHT22;15961;54.678;9.110;2023-01-29T04:07:10;4.40;99.90
28823;DHT22;15961;54.678;9.110;2023-01-29T04:10:00;4.50;99.90
28823;DHT22;15961;54.678;9.110;2023-01-29T04:12:57;4.50;99.90
28823;DHT22;15961;54.678;9.110;2023-01-29T04:15:21;4.50;99.90
28823;DHT22;15961;54.678;9.110;2023-01-29T04:17:51;4.50;99.90
28823;DHT22;15961;54.678;9.110;2023-01-29T04:20:18;4.50;99.90
28823;DHT22;15961;54.678;9.110;2023-01-29T04:22:46;4.50;99.90
28823;DHT22;15961;54.678;9.110;2023-01-29T04:28:18;4.50;99.90
28823;DHT22;15961;54.678;9.110;2023-01-29T04:36:18;4.50;99.90
28823;DHT22;15961;54.678;9.110;2023-01-29T04:41:54;4.50;99.90
28823;DHT22;15961;54.678;9.110;2023-01-29T04:45:04;4.50;99.90
28823;DHT22;15961;54.678;9.110;2023-01-29T04:47:32;4.50;99.90
28823;DHT22;15961;54.678;9.110;2023-01-29T04:53:14;4.60;99.90
28823;DHT22;15961;54.678;9.110;2023-01-29T04:55:50;4.60;99.90
28823;DHT22;15961;54.678;9.110;2023-01-29T05:01:00;4.60;99.90
28823;DHT22;15961;54.678;9.110;2023-01-29T05:03:29;4.50;99.90
28823;DHT22;15961;54.678;9.110;2023-01-29T05:05:57;4.50;99.90
28823;DHT22;15961;54.678;9.110;2023-01-29T05:08:25;4.60;99.90
28823;DHT22;15961;54.678;9.110;2023-01-29T05:10:53;4.60;99.90
28823;DHT22;15961;54.678;9.110;2023-01-29T05:13:21;4.70;99.90
28823;DHT22;15961;54.678;9.110;2023-01-29T05:15:59;4.70;99.90
28823;DHT22;15961;54.678;9.110;2023-01-29T05:18:27;4.70;99.90
28823;DHT22;15961;54.678;9.110;2023-01-29T05:20:55;4.80;99.90
28823;DHT22;15961;54.678;9.110;2023-01-29T05:23:21;4.80;99.90
28823;DHT22;15961;54.678;9.110;2023-01-29T05:25:49;4.80;99.90
28823;DHT22;15961;54.678;9.110;2023-01-29T05:28:14;4.90;99.90
28823;DHT22;15961;54.678;9.110;2023-01-29T05:30:49;4.90;99.90
28823;DHT22;15961;54.678;9.110;2023-01-29T05:33:23;4.90;99.90
28823;DHT22;15961;54.678;9.110;2023-01-29T05:35:49;4.90;99.90
28823;DHT22;15961;54.678;9.110;2023-01-29T05:38:18;4.90;99.90
28823;DHT22;15961;54.678;9.110;2023-01-29T05:40:44;4.90;99.90
28823;DHT22;15961;54.678;9.110;2023-01-29T05:43:21;4.90;99.90
28823;DHT22;15961;54.678;9.110;2023-01-29T05:45:54;4.90;99.90
28823;DHT22;15961;54.678;9.110;2023-01-29T05:48:20;4.80;99.90
28823;DHT22;15961;54.678;9.110;2023-01-29T05:50:46;4.90;99.90
28823;DHT22;15961;54.678;9.110;2023-01-29T05:53:11;4.80;99.90
28823;DHT22;15961;54.678;9.110;2023-01-29T05:55:37;4.90;99.90
28823;DHT22;15961;54.678;9.110;2023-01-29T05:58:02;4.90;99.90
28823;DHT22;15961;54.678;9.110;2023-01-29T06:00:28;4.90;99.90
28823;DHT22;15961;54.678;9.110;2023-01-29T06:02:53;4.90;99.90
28823;DHT22;15961;54.678;9.110;2023-01-29T06:05:19;4.90;99.90
28823;DHT22;15961;54.678;9.110;2023-01-29T06:07:44;4.90;99.90
28823;DHT22;15961;54.678;9.110;2023-01-29T06:10:15;4.90;99.90
28823;DHT22;15961;54.678;9.110;2023-01-29T06:12:42;4.80;99.90
28823;DHT22;15961;54.678;9.110;2023-01-29T06:15:08;4.80;99.90
28823;DHT22;15961;54.678;9.110;2023-01-29T06:17:34;4.80;99.90
28823;DHT22;15961;54.678;9.110;2023-01-29T06:20:00;4.80;99.90
28823;DHT22;15961;54.678;9.110;2023-01-29T06:22:25;4.80;99.90
28823;DHT22;15961;54.678;9.110;2023-01-29T06:24:51;4.80;99.90
28823;DHT22;15961;54.678;9.110;2023-01-29T06:27:16;4.80;99.90
28823;DHT22;15961;54.678;9.110;2023-01-29T06:29:42;4.80;99.90
28823;DHT22;15961;54.678;9.110;2023-01-29T06:32:07;4.70;99.90
28823;DHT22;15961;54.678;9.110;2023-01-29T06:34:33;4.70;99.90
28823;DHT22;15961;54.678;9.110;2023-01-29T06:36:58;4.70;99.90
28823;DHT22;15961;54.678;9.110;2023-01-29T06:39:24;4.80;99.90
28823;DHT22;15961;54.678;9.110;2023-01-29T06:41:50;4.80;99.90
28823;DHT22;15961;54.678;9.110;2023-01-29T06:44:15;4.80;99.90
28823;DHT22;15961;54.678;9.110;2023-01-29T06:46:41;4.80;99.90
28823;DHT22;15961;54.678;9.110;2023-01-29T06:49:06;4.70;99.90
28823;DHT22;15961;54.678;9.110;2023-01-29T06:51:32;4.80;99.90
28823;DHT22;15961;54.678;9.110;2023-01-29T06:53:57;4.80;99.90
28823;DHT22;15961;54.678;9.110;2023-01-29T06:56:23;4.70;99.90
28823;DHT22;15961;54.678;9.110;2023-01-29T06:58:49;4.70;99.90
28823;DHT22;15961;54.678;9.110;2023-01-29T07:01:15;4.70;99.90
28823;DHT22;15961;54.678;9.110;2023-01-29T07:03:40;4.70;99.90
28823;DHT22;15961;54.678;9.110;2023-01-29T07:06:07;4.60;99.90
28823;DHT22;15961;54.678;9.110;2023-01-29T07:08:36;4.60;99.90
28823;DHT22;15961;54.678;9.110;2023-01-29T07:11:03;4.60;99.90
28823;DHT22;15961;54.678;9.110;2023-01-29T07:13:29;4.60;99.90
28823;DHT22;15961;54.678;9.110;2023-01-29T07:15:58;4.60;99.90
28823;DHT22;15961;54.678;9.110;2023-01-29T07:18:25;4.60;99.90
28823;DHT22;15961;54.678;9.110;2023-01-29T07:20:50;4.60;99.90
28823;DHT22;15961;54.678;9.110;2023-01-29T07:23:16;4.60;99.90
28823;DHT22;15961;54.678;9.110;2023-01-29T07:25:42;4.50;99.90
28823;DHT22;15961;54.678;9.110;2023-01-29T07:28:08;4.50;99.90
28823;DHT22;15961;54.678;9.110;2023-01-29T07:30:34;4.50;99.90
28823;DHT22;15961;54.678;9.110;2023-01-29T07:33:01;4.50;99.90
28823;DHT22;15961;54.678;9.110;2023-01-29T07:35:27;4.60;99.90
28823;DHT22;15961;54.678;9.110;2023-01-29T07:37:52;4.60;99.90
28823;DHT22;15961;54.678;9.110;2023-01-29T07:40:18;4.50;99.90
28823;DHT22;15961;54.678;9.110;2023-01-29T07:42:43;4.50;99.90
28823;DHT22;15961;54.678;9.110;2023-01-29T07:45:10;4.40;99.90
28823;DHT22;15961;54.678;9.110;2023-01-29T07:47:36;4.50;99.90
28823;DHT22;15961;54.678;9.110;2023-01-29T07:50:03;4.60;99.90
28823;DHT22;15961;54.678;9.110;2023-01-29T07:52:30;4.60;99.90
28823;DHT22;15961;54.678;9.110;2023-01-29T07:54:56;4.60;99.90
28823;DHT22;15961;54.678;9.110;2023-01-29T07:57:22;4.70;99.90
28823;DHT22;15961;54.678;9.110;2023-01-29T07:59:47;4.60;99.90
28823;DHT22;15961;54.678;9.110;2023-01-29T08:02:13;4.70;99.90
28823;DHT22;15961;54.678;9.110;2023-01-29T08:04:38;4.70;99.90
28823;DHT22;15961;54.678;9.110;2023-01-29T08:07:04;4.70;99.90
28823;DHT22;15961;54.678;9.110;2023-01-29T08:09:30;4.80;99.90
28823;DHT22;15961;54.678;9.110;2023-01-29T08:11:56;4.80;99.90
28823;DHT22;15961;54.678;9.110;2023-01-29T08:14:22;4.80;99.90
28823;DHT22;15961;54.678;9.110;2023-01-29T08:16:48;4.90;99.90
28823;DHT22;15961;54.678;9.110;2023-01-29T08:19:14;4.90;99.90
28823;DHT22;15961;54.678;9.110;2023-01-29T08:21:39;4.90;99.90
28823;DHT22;15961;54.678;9.110;2023-01-29T08:24:05;4.90;99.90
28823;DHT22;15961;54.678;9.110;2023-01-29T08:26:31;4.90;99.90
28823;DHT22;15961;54.678;9.110;2023-01-29T08:28:57;5.00;99.90
28823;DHT22;15961;54.678;9.110;2023-01-29T08:31:22;5.00;99.90
28823;DHT22;15961;54.678;9.110;2023-01-29T08:33:48;5.00;99.90
28823;DHT22;15961;54.678;9.110;2023-01-29T08:36:14;4.90;99.90
28823;DHT22;15961;54.678;9.110;2023-01-29T08:38:40;5.00;99.90
28823;DHT22;15961;54.678;9.110;2023-01-29T08:41:06;5.00;99.90
28823;DHT22;15961;54.678;9.110;2023-01-29T08:43:31;5.00;99.90
28823;DHT22;15961;54.678;9.110;2023-01-29T08:45:57;5.10;99.90
28823;DHT22;15961;54.678;9.110;2023-01-29T08:48:23;5.10;99.90
28823;DHT22;15961;54.678;9.110;2023-01-29T08:50:49;5.00;99.90
28823;DHT22;15961;54.678;9.110;2023-01-29T08:53:15;5.00;99.90
28823;DHT22;15961;54.678;9.110;2023-01-29T08:55:41;5.10;99.90
28823;DHT22;15961;54.678;9.110;2023-01-29T08:58:08;5.10;99.90
28823;DHT22;15961;54.678;9.110;2023-01-29T09:00:35;5.20;99.90
28823;DHT22;15961;54.678;9.110;2023-01-29T09:03:00;5.20;99.90
28823;DHT22;15961;54.678;9.110;2023-01-29T09:05:27;5.30;99.90
28823;DHT22;15961;54.678;9.110;2023-01-29T09:07:53;5.30;99.90
28823;DHT22;15961;54.678;9.110;2023-01-29T09:10:20;5.30;99.90
28823;DHT22;15961;54.678;9.110;2023-01-29T09:12:46;5.30;99.90
28823;DHT22;15961;54.678;9.110;2023-01-29T09:15:11;5.40;99.90
28823;DHT22;15961;54.678;9.110;2023-01-29T09:17:37;5.30;99.90
28823;DHT22;15961;54.678;9.110;2023-01-29T09:20:02;5.30;99.90
28823;DHT22;15961;54.678;9.110;2023-01-29T09:22:31;5.40;99.90
28823;DHT22;15961;54.678;9.110;2023-01-29T09:24:56;5.40;99.90
28823;DHT22;15961;54.678;9.110;2023-01-29T09:27:22;5.30;99.90
28823;DHT22;15961;54.678;9.110;2023-01-29T09:29:48;5.30;99.90
28823;DHT22;15961;54.678;9.110;2023-01-29T09:32:13;5.20;99.90
28823;DHT22;15961;54.678;9.110;2023-01-29T09:34:39;5.20;99.90
28823;DHT22;15961;54.678;9.110;2023-01-29T09:37:04;5.30;99.90
28823;DHT22;15961;54.678;9.110;2023-01-29T09:39:30;5.30;99.90
28823;DHT22;15961;54.678;9.110;2023-01-29T09:42:10;5.30;99.90
28823;DHT22;15961;54.678;9.110;2023-01-29T09:44:46;5.30;99.90
28823;DHT22;15961;54.678;9.110;2023-01-29T09:47:14;5.30;99.90
28823;DHT22;15961;54.678;9.110;2023-01-29T09:49:46;5.30;99.90
28823;DHT22;15961;54.678;9.110;2023-01-29T09:52:22;5.40;99.90
28823;DHT22;15961;54.678;9.110;2023-01-29T09:55:06;5.30;99.90
28823;DHT22;15961;54.678;9.110;2023-01-29T09:57:53;5.30;99.90
28823;DHT22;15961;54.678;9.110;2023-01-29T10:00:50;5.30;99.90
28823;DHT22;15961;54.678;9.110;2023-01-29T10:06:42;5.40;99.90
28823;DHT22;15961;54.678;9.110;2023-01-29T10:12:42;5.30;99.90
28823;DHT22;15961;54.678;9.110;2023-01-29T10:15:27;5.30;99.90
28823;DHT22;15961;54.678;9.110;2023-01-29T10:21:07;5.20;99.90
28823;DHT22;15961;54.678;9.110;2023-01-29T10:23:39;5.20;99.90
28823;DHT22;15961;54.678;9.110;2023-01-29T10:26:10;5.20;99.90
28823;DHT22;15961;54.678;9.110;2023-01-29T10:28:43;5.30;99.90
28823;DHT22;15961;54.678;9.110;2023-01-29T10:31:30;5.30;99.90
28823;DHT22;15961;54.678;9.110;2023-01-29T10:34:13;5.30;99.90
28823;DHT22;15961;54.678;9.110;2023-01-29T10:36:45;5.40;99.90
28823;DHT22;15961;54.678;9.110;2023-01-29T10:42:11;5.40;99.90
28823;DHT22;15961;54.678;9.110;2023-01-29T10:58:01;5.40;99.90
28823;DHT22;15961;54.678;9.110;2023-01-29T11:00:36;5.50;99.90
28823;DHT22;15961;54.678;9.110;2023-01-29T11:03:16;5.50;99.90
28823;DHT22;15961;54.678;9.110;2023-01-29T11:06:03;5.50;99.90
28823;DHT22;15961;54.678;9.110;2023-01-29T11:08:42;5.50;99.90
28823;DHT22;15961;54.678;9.110;2023-01-29T11:11:15;5.50;99.90
28823;DHT22;15961;54.678;9.110;2023-01-29T11:13:49;5.50;99.90
28823;DHT22;15961;54.678;9.110;2023-01-29T11:16:17;5.50;99.90
28823;DHT22;15961;54.678;9.110;2023-01-29T11:18:54;5.50;99.90
28823;DHT22;15961;54.678;9.110;2023-01-29T11:21:20;5.60;99.90
28823;DHT22;15961;54.678;9.110;2023-01-29T11:23:46;5.60;99.90
28823;DHT22;15961;54.678;9.110;2023-01-29T11:26:15;5.60;99.90
28823;DHT22;15961;54.678;9.110;2023-01-29T11:28:44;5.70;99.90
28823;DHT22;15961;54.678;9.110;2023-01-29T11:31:25;5.70;99.90
28823;DHT22;15961;54.678;9.110;2023-01-29T11:34:00;5.80;99.90
28823;DHT22;15961;54.678;9.110;2023-01-29T11:36:36;5.80;99.90
28823;DHT22;15961;54.678;9.110;2023-01-29T11:39:20;5.80;99.90
28823;DHT22;15961;54.678;9.110;2023-01-29T11:41:56;5.80;99.90
28823;DHT22;15961;54.678;9.110;2023-01-29T11:44:33;5.70;99.90
28823;DHT22;15961;54.678;9.110;2023-01-29T11:49:54;5.50;99.90
28823;DHT22;15961;54.678;9.110;2023-01-29T11:52:23;5.50;99.90
28823;DHT22;15961;54.678;9.110;2023-01-29T11:54:55;5.60;99.90
28823;DHT22;15961;54.678;9.110;2023-01-29T11:57:37;5.50;99.90
28823;DHT22;15961;54.678;9.110;2023-01-29T12:02:41;5.50;99.90
28823;DHT22;15961;54.678;9.110;2023-01-29T12:05:21;5.60;99.90
28823;DHT22;15961;54.678;9.110;2023-01-29T12:07:49;5.70;99.90
28823;DHT22;15961;54.678;9.110;2023-01-29T12:10:39;5.70;99.90
28823;DHT22;15961;54.678;9.110;2023-01-29T12:15:34;5.80;99.90
28823;DHT22;15961;54.678;9.110;2023-01-29T12:18:06;5.80;99.90
28823;DHT22;15961;54.678;9.110;2023-01-29T12:20:43;5.80;99.90
28823;DHT22;15961;54.678;9.110;2023-01-29T12:25:49;5.80;99.90
28823;DHT22;15961;54.678;9.110;2023-01-29T12:34:09;5.90;99.90
28823;DHT22;15961;54.678;9.110;2023-01-29T12:36:59;5.90;99.90
28823;DHT22;15961;54.678;9.110;2023-01-29T12:39:26;5.90;99.90
28823;DHT22;15961;54.678;9.110;2023-01-29T12:42:23;5.90;99.90
28823;DHT22;15961;54.678;9.110;2023-01-29T12:45:02;5.90;99.90
28823;DHT22;15961;54.678;9.110;2023-01-29T12:47:34;5.90;99.90
28823;DHT22;15961;54.678;9.110;2023-01-29T12:50:05;6.00;99.90
28823;DHT22;15961;54.678;9.110;2023-01-29T12:52:38;5.90;99.90
28823;DHT22;15961;54.678;9.110;2023-01-29T13:00:10;6.00;99.90
28823;DHT22;15961;54.678;9.110;2023-01-29T13:02:48;6.00;99.90
28823;DHT22;15961;54.678;9.110;2023-01-29T13:07:46;6.00;99.90
28823;DHT22;15961;54.678;9.110;2023-01-29T13:10:14;5.90;99.90
28823;DHT22;15961;54.678;9.110;2023-01-29T13:12:51;5.90;99.90
28823;DHT22;15961;54.678;9.110;2023-01-29T13:15:44;6.00;99.90
28823;DHT22;15961;54.678;9.110;2023-01-29T13:21:00;5.90;99.90
28823;DHT22;15961;54.678;9.110;2023-01-29T13:23:33;5.80;99.90
28823;DHT22;15961;54.678;9.110;2023-01-29T13:25:59;5.80;99.90
28823;DHT22;15961;54.678;9.110;2023-01-29T13:28:26;5.70;99.90
28823;DHT22;15961;54.678;9.110;2023-01-29T13:33:36;5.80;99.90
28823;DHT22;15961;54.678;9.110;2023-01-29T13:36:02;5.80;99.90
28823;DHT22;15961;54.678;9.110;2023-01-29T13:38:29;5.90;99.90
28823;DHT22;15961;54.678;9.110;2023-01-29T13:41:03;5.90;99.90
28823;DHT22;15961;54.678;9.110;2023-01-29T13:43:34;6.00;99.90
28823;DHT22;15961;54.678;9.110;2023-01-29T13:46:10;6.00;99.90
28823;DHT22;15961;54.678;9.110;2023-01-29T13:48:42;6.00;99.90
28823;DHT22;15961;54.678;9.110;2023-01-29T13:51:10;6.00;99.90
28823;DHT22;15961;54.678;9.110;2023-01-29T13:53:41;6.10;99.90
28823;DHT22;15961;54.678;9.110;2023-01-29T13:59:02;6.10;99.90
28823;DHT22;15961;54.678;9.110;2023-01-29T14:06:45;6.20;99.90
28823;DHT22;15961;54.678;9.110;2023-01-29T14:12:02;6.10;99.90
28823;DHT22;15961;54.678;9.110;2023-01-29T14:17:16;6.00;99.90
28823;DHT22;15961;54.678;9.110;2023-01-29T14:19:50;6.10;99.90
28823;DHT22;15961;54.678;9.110;2023-01-29T14:22:25;6.10;99.90
28823;DHT22;15961;54.678;9.110;2023-01-29T14:25:00;6.10;99.90
28823;DHT22;15961;54.678;9.110;2023-01-29T14:27:28;6.10;99.90
28823;DHT22;15961;54.678;9.110;2023-01-29T14:30:05;6.00;99.90
28823;DHT22;15961;54.678;9.110;2023-01-29T14:32:31;6.10;99.90
28823;DHT22;15961;54.678;9.110;2023-01-29T14:37:47;6.00;99.90
28823;DHT22;15961;54.678;9.110;2023-01-29T14:43:05;6.00;99.90
28823;DHT22;15961;54.678;9.110;2023-01-29T14:45:36;6.00;99.90
28823;DHT22;15961;54.678;9.110;2023-01-29T14:56:10;6.00;99.90
28823;DHT22;15961;54.678;9.110;2023-01-29T14:58:41;6.00;99.90
28823;DHT22;15961;54.678;9.110;2023-01-29T15:03:50;5.90;99.90
28823;DHT22;15961;54.678;9.110;2023-01-29T15:06:21;5.90;99.90
28823;DHT22;15961;54.678;9.110;2023-01-29T15:08:54;5.90;99.90
28823;DHT22;15961;54.678;9.110;2023-01-29T15:11:31;5.90;99.90
28823;DHT22;15961;54.678;9.110;2023-01-29T15:14:11;5.90;99.90
28823;DHT22;15961;54.678;9.110;2023-01-29T15:19:21;5.90;99.90
28823;DHT22;15961;54.678;9.110;2023-01-29T15:22:08;5.90;99.90
28823;DHT22;15961;54.678;9.110;2023-01-29T15:24:35;5.90;99.90
28823;DHT22;15961;54.678;9.110;2023-01-29T15:27:01;5.90;99.90
28823;DHT22;15961;54.678;9.110;2023-01-29T15:29:27;5.90;99.90
28823;DHT22;15961;54.678;9.110;2023-01-29T15:31:55;5.80;99.90
28823;DHT22;15961;54.678;9.110;2023-01-29T15:34:21;5.90;99.90
28823;DHT22;15961;54.678;9.110;2023-01-29T15:36:48;5.80;99.90
28823;DHT22;15961;54.678;9.110;2023-01-29T15:39:24;5.80;99.90
28823;DHT22;15961;54.678;9.110;2023-01-29T15:42:09;5.80;99.90
28823;DHT22;15961;54.678;9.110;2023-01-29T15:44:36;5.80;99.90
28823;DHT22;15961;54.678;9.110;2023-01-29T15:47:08;5.70;99.90
28823;DHT22;15961;54.678;9.110;2023-01-29T15:49:35;5.70;99.90
28823;DHT22;15961;54.678;9.110;2023-01-29T15:52:04;5.70;99.90
28823;DHT22;15961;54.678;9.110;2023-01-29T15:54:32;5.70;99.90
28823;DHT22;15961;54.678;9.110;2023-01-29T15:57:00;5.70;99.90
28823;DHT22;15961;54.678;9.110;2023-01-29T15:59:30;5.70;99.90
28823;DHT22;15961;54.678;9.110;2023-01-29T16:02:17;5.70;99.90
28823;DHT22;15961;54.678;9.110;2023-01-29T16:04:43;5.70;99.90
28823;DHT22;15961;54.678;9.110;2023-01-29T16:07:09;5.70;99.90
28823;DHT22;15961;54.678;9.110;2023-01-29T16:09:36;5.70;99.90
28823;DHT22;15961;54.678;9.110;2023-01-29T16:12:02;5.70;99.90
28823;DHT22;15961;54.678;9.110;2023-01-29T16:14:28;5.80;99.90
28823;DHT22;15961;54.678;9.110;2023-01-29T16:16:55;5.80;99.90
28823;DHT22;15961;54.678;9.110;2023-01-29T16:19:26;5.80;99.90
28823;DHT22;15961;54.678;9.110;2023-01-29T16:21:58;5.70;99.90
28823;DHT22;15961;54.678;9.110;2023-01-29T16:24:25;5.80;99.90
28823;DHT22;15961;54.678;9.110;2023-01-29T16:26:57;5.80;99.90
28823;DHT22;15961;54.678;9.110;2023-01-29T16:29:29;5.70;99.90
28823;DHT22;15961;54.678;9.110;2023-01-29T16:31:56;5.70;99.90
28823;DHT22;15961;54.678;9.110;2023-01-29T16:34:29;5.70;99.90
28823;DHT22;15961;54.678;9.110;2023-01-29T16:36:58;5.70;99.90
28823;DHT22;15961;54.678;9.110;2023-01-29T16:39:38;5.60;99.90
28823;DHT22;15961;54.678;9.110;2023-01-29T16:45:02;5.70;99.90
28823;DHT22;15961;54.678;9.110;2023-01-29T16:47:32;5.70;99.90
28823;DHT22;15961;54.678;9.110;2023-01-29T16:50:03;5.70;99.90
28823;DHT22;15961;54.678;9.110;2023-01-29T16:53:00;5.70;99.90
28823;DHT22;15961;54.678;9.110;2023-01-29T16:55:32;5.70;99.90
28823;DHT22;15961;54.678;9.110;2023-01-29T16:58:03;5.70;99.90
28823;DHT22;15961;54.678;9.110;2023-01-29T17:00:33;5.70;99.90
28823;DHT22;15961;54.678;9.110;2023-01-29T17:03:06;5.70;99.90
28823;DHT22;15961;54.678;9.110;2023-01-29T17:05:34;5.70;99.90
28823;DHT22;15961;54.678;9.110;2023-01-29T17:08:01;5.70;99.90
28823;DHT22;15961;54.678;9.110;2023-01-29T17:10:28;5.70;99.90
28823;DHT22;15961;54.678;9.110;2023-01-29T17:13:02;5.70;99.90
28823;DHT22;15961;54.678;9.110;2023-01-29T17:18:27;5.70;99.90
28823;DHT22;15961;54.678;9.110;2023-01-29T17:20:53;5.70;99.90
28823;DHT22;15961;54.678;9.110;2023-01-29T17:23:20;5.70;99.90
28823;DHT22;15961;54.678;9.110;2023-01-29T17:25:46;5.70;99.90
28823;DHT22;15961;54.678;9.110;2023-01-29T17:28:14;5.70;99.90
28823;DHT22;15961;54.678;9.110;2023-01-29T17:30:40;5.70;99.90
28823;DHT22;15961;54.678;9.110;2023-01-29T17:33:11;5.70;99.90
28823;DHT22;15961;54.678;9.110;2023-01-29T17:35:38;5.70;99.90
28823;DHT22;15961;54.678;9.110;2023-01-29T17:38:04;5.70;99.90
28823;DHT22;15961;54.678;9.110;2023-01-29T17:40:37;5.70;99.90
28823;DHT22;15961;54.678;9.110;2023-01-29T17:43:03;5.70;99.90
28823;DHT22;15961;54.678;9.110;2023-01-29T17:45:29;5.80;99.90
28823;DHT22;15961;54.678;9.110;2023-01-29T17:47:54;5.80;99.90
28823;DHT22;15961;54.678;9.110;2023-01-29T17:50:23;5.80;99.90
28823;DHT22;15961;54.678;9.110;2023-01-29T17:52:50;5.80;99.90
28823;DHT22;15961;54.678;9.110;2023-01-29T17:55:16;5.80;99.90
28823;DHT22;15961;54.678;9.110;2023-01-29T17:57:41;5.70;99.90
28823;DHT22;15961;54.678;9.110;2023-01-29T18:00:17;5.80;99.90
28823;DHT22;15961;54.678;9.110;2023-01-29T18:02:43;5.70;99.90
28823;DHT22;15961;54.678;9.110;2023-01-29T18:05:10;5.70;99.90
28823;DHT22;15961;54.678;9.110;2023-01-29T18:07:37;5.70;99.90
28823;DHT22;15961;54.678;9.110;2023-01-29T18:10:04;5.70;99.90
28823;DHT22;15961;54.678;9.110;2023-01-29T18:12:29;5.60;99.90
28823;DHT22;15961;54.678;9.110;2023-01-29T18:14:55;5.60;99.90
28823;DHT22;15961;54.678;9.110;2023-01-29T18:17:20;5.60;99.90
28823;DHT22;15961;54.678;9.110;2023-01-29T18:19:47;5.60;99.90
28823;DHT22;15961;54.678;9.110;2023-01-29T18:22:13;5.60;99.90
28823;DHT22;15961;54.678;9.110;2023-01-29T18:24:39;5.50;99.90
28823;DHT22;15961;54.678;9.110;2023-01-29T18:27:04;5.60;99.90
28823;DHT22;15961;54.678;9.110;2023-01-29T18:29:30;5.60;99.90
28823;DHT22;15961;54.678;9.110;2023-01-29T18:31:56;5.50;99.90
28823;DHT22;15961;54.678;9.110;2023-01-29T18:34:21;5.60;99.90
28823;DHT22;15961;54.678;9.110;2023-01-29T18:36:47;5.60;99.90
28823;DHT22;15961;54.678;9.110;2023-01-29T18:39:13;5.60;99.90